Time;durP1;ratioP1;P1;durP2;ratioP2;P2;SDS_P1;SDS_P2;PMS_P1;PMS_P2;Temp;Humidity;BMP_temperature;BMP_pressure;BME280_temperature;BME280_humidity;BME280_pressure;Samples;Min_cycle;Max_cycle;Signal;HPM_P1;HPM_P2
2022/09/01 00:01:48;;;;;;;3.77;1.27;;;;;;;;;;5014780;28;20186;-66
2022/09/01 00:04:15;;;;;;;3.53;1.30;;;;;;;;;;5028171;28;20326;-66
2022/09/01 00:06:42;;;;;;;3.10;1.70;;;;;;;;;;5028371;28;20187;-66
2022/09/01 00:09:10;;;;;;;3.20;1.13;;;;;;;;;;5028615;28;20187;-66
2022/09/01 00:11:37;;;;;;;3.07;1.10;;;;;;;;;;5027366;28;20195;-66
2022/09/01 00:14:22;;;;;;;5.90;1.13;;;;;;;;;;5028121;28;20670;-66
2022/09/01 00:16:57;;;;;;;3.50;1.30;;;;;;;;;;5028328;28;20198;-66
2022/09/01 00:19:24;;;;;;;2.53;1.10;;;;;;;;;;5027134;28;20221;-66
2022/09/01 00:21:51;;;;;;;2.90;1.07;;;;;;;;;;5028188;28;20213;-65
2022/09/01 00:24:17;;;;;;;2.30;1.17;;;;;;;;;;5026972;28;20213;-67
2022/09/01 00:27:02;;;;;;;2.00;0.97;;;;;;;;;;5020315;28;20182;-65
2022/09/01 00:29:28;;;;;;;2.40;1.17;;;;;;;;;;5028195;28;20192;-66
2022/09/01 00:32:13;;;;;;;2.90;1.07;;;;;;;;;;5010556;28;20175;-66
2022/09/01 00:34:40;;;;;;;2.17;0.97;;;;;;;;;;5027975;28;20194;-65
2022/09/01 00:37:07;;;;;;;2.57;1.10;;;;;;;;;;5010235;28;20199;-66
2022/09/01 00:39:33;;;;;;;1.27;0.90;;;;;;;;;;5027979;28;20701;-67
2022/09/01 00:42:00;;;;;;;2.10;0.83;;;;;;;;;;5028284;28;20195;-66
2022/09/01 00:44:27;;;;;;;3.37;0.80;;;;;;;;;;5025440;28;20210;-66
2022/09/01 00:46:57;;;;;;;3.13;0.90;;;;;;;;;;5028031;28;20195;-66
2022/09/01 00:49:35;;;;;;;2.50;1.30;;;;;;;;;;5010160;28;20274;-66
2022/09/01 00:52:05;;;;;;;2.97;0.77;;;;;;;;;;5026777;28;20921;-65
2022/09/01 00:54:33;;;;;;;1.37;0.40;;;;;;;;;;5026775;28;20184;-66
2022/09/01 00:57:01;;;;;;;2.47;0.80;;;;;;;;;;5027374;28;20667;-65
2022/09/01 00:59:27;;;;;;;1.50;0.70;;;;;;;;;;5018735;28;20240;-66
2022/09/01 01:01:55;;;;;;;1.63;0.60;;;;;;;;;;5027978;28;20202;-66
2022/09/01 01:04:22;;;;;;;1.00;0.70;;;;;;;;;;5020391;28;20224;-66
2022/09/01 01:06:57;;;;;;;1.50;0.60;;;;;;;;;;5006746;28;20288;-66
2022/09/01 01:09:24;;;;;;;0.70;0.50;;;;;;;;;;5023056;28;20295;-68
2022/09/01 01:11:51;;;;;;;1.17;0.30;;;;;;;;;;5008659;28;20715;-66
2022/09/01 01:14:18;;;;;;;1.07;0.60;;;;;;;;;;5007856;28;20200;-66
2022/09/01 01:16:46;;;;;;;0.83;0.40;;;;;;;;;;4999496;28;20207;-66
2022/09/01 01:25:04;;;;;;;0.53;0.40;;;;;;;;;;4990306;28;20203;-66
2022/09/01 01:27:32;;;;;;;1.10;0.60;;;;;;;;;;4993184;28;20188;-67
2022/09/01 01:30:09;;;;;;;0.70;0.40;;;;;;;;;;5011510;28;20196;-66
2022/09/01 01:32:41;;;;;;;0.90;0.50;;;;;;;;;;5024871;28;20192;-66
2022/09/01 01:35:13;;;;;;;0.77;0.50;;;;;;;;;;4993552;28;20418;-66
2022/09/01 01:37:44;;;;;;;1.30;0.50;;;;;;;;;;5026612;28;20204;-65
2022/09/01 01:40:14;;;;;;;1.67;0.70;;;;;;;;;;5009876;28;20273;-66
2022/09/01 01:42:44;;;;;;;1.17;0.57;;;;;;;;;;4993702;28;20195;-66
2022/09/01 01:45:15;;;;;;;1.53;0.50;;;;;;;;;;5011288;28;20203;-66
2022/09/01 01:47:46;;;;;;;1.20;0.60;;;;;;;;;;5025630;28;20287;-67
2022/09/01 01:50:14;;;;;;;2.37;0.50;;;;;;;;;;5026210;28;20660;-66
2022/09/01 01:52:43;;;;;;;2.63;0.53;;;;;;;;;;4993273;28;20242;-67
2022/09/01 01:55:29;;;;;;;1.10;0.40;;;;;;;;;;4996348;28;20279;-66
2022/09/01 01:57:58;;;;;;;3.13;0.50;;;;;;;;;;4993224;28;20235;-66
2022/09/01 02:00:26;;;;;;;0.90;0.50;;;;;;;;;;5010156;28;20215;-66
2022/09/01 02:02:56;;;;;;;1.03;0.30;;;;;;;;;;5011686;28;20222;-66
2022/09/01 02:05:25;;;;;;;0.40;0.40;;;;;;;;;;5029337;28;20568;-66
2022/09/01 02:07:55;;;;;;;1.40;0.50;;;;;;;;;;5049546;28;20202;-66
2022/09/01 02:10:25;;;;;;;0.87;0.30;;;;;;;;;;5029205;28;20230;-66
2022/09/01 02:12:52;;;;;;;0.83;0.40;;;;;;;;;;5017211;28;20279;-66
2022/09/01 02:15:19;;;;;;;0.57;0.40;;;;;;;;;;5045805;28;20203;-66
2022/09/01 02:17:46;;;;;;;0.50;0.40;;;;;;;;;;5030522;28;20820;-66
2022/09/01 02:20:15;;;;;;;0.93;0.50;;;;;;;;;;5012398;28;20215;-66
2022/09/01 02:22:43;;;;;;;1.87;0.53;;;;;;;;;;5027249;28;20188;-66
2022/09/01 02:25:10;;;;;;;2.60;0.47;;;;;;;;;;5012656;28;20199;-66
2022/09/01 02:27:38;;;;;;;0.90;0.50;;;;;;;;;;5030159;28;20187;-66
2022/09/01 02:30:09;;;;;;;1.37;0.50;;;;;;;;;;5029112;28;20701;-67
2022/09/01 02:32:36;;;;;;;1.97;0.50;;;;;;;;;;5030281;28;20199;-66
2022/09/01 02:35:20;;;;;;;0.77;0.50;;;;;;;;;;5001063;28;20325;-65
2022/09/01 02:37:54;;;;;;;2.17;0.70;;;;;;;;;;5012322;28;20609;-66
2022/09/01 02:40:21;;;;;;;1.97;0.57;;;;;;;;;;5039304;28;20227;-65
2022/09/01 02:42:51;;;;;;;0.80;0.50;;;;;;;;;;5045422;28;20961;-66
2022/09/01 02:45:18;;;;;;;0.73;0.50;;;;;;;;;;5030342;28;20238;-66
2022/09/01 02:47:47;;;;;;;1.17;0.70;;;;;;;;;;5012651;28;20222;-66
2022/09/01 02:50:17;;;;;;;1.83;0.70;;;;;;;;;;5045036;28;20211;-66
2022/09/01 02:52:45;;;;;;;0.60;0.53;;;;;;;;;;5030330;28;20270;-66
2022/09/01 02:55:29;;;;;;;2.20;0.70;;;;;;;;;;5014258;28;20187;-66
2022/09/01 02:57:57;;;;;;;0.83;0.57;;;;;;;;;;5011975;28;20727;-65
2022/09/01 03:00:42;;;;;;;0.90;0.50;;;;;;;;;;4998217;28;20570;-66
2022/09/01 03:03:11;;;;;;;1.43;0.50;;;;;;;;;;4996081;28;20187;-66
2022/09/01 03:05:38;;;;;;;1.23;0.50;;;;;;;;;;5011292;28;20691;-66
2022/09/01 03:08:06;;;;;;;0.93;0.50;;;;;;;;;;5044752;28;20714;-66
2022/09/01 03:10:34;;;;;;;2.07;0.60;;;;;;;;;;5028091;28;20932;-66
2022/09/01 03:13:07;;;;;;;1.43;0.80;;;;;;;;;;5028590;28;20558;-66
2022/09/01 03:15:35;;;;;;;1.33;0.60;;;;;;;;;;5048889;28;20282;-66
2022/09/01 03:18:02;;;;;;;0.77;0.50;;;;;;;;;;5012279;28;20194;-66
2022/09/01 03:20:30;;;;;;;1.20;0.40;;;;;;;;;;5028560;28;20216;-66
2022/09/01 03:22:57;;;;;;;1.67;0.50;;;;;;;;;;4982128;28;20184;-66
2022/09/01 03:25:24;;;;;;;1.93;0.70;;;;;;;;;;5018986;28;20199;-66
2022/09/01 03:27:52;;;;;;;0.67;0.50;;;;;;;;;;5026985;28;20299;-66
2022/09/01 03:30:19;;;;;;;0.93;0.50;;;;;;;;;;5010962;28;20544;-66
2022/09/01 03:32:46;;;;;;;0.40;0.40;;;;;;;;;;5029124;28;20196;-66
2022/09/01 03:35:16;;;;;;;2.03;0.40;;;;;;;;;;5049521;28;20206;-68
2022/09/01 03:37:43;;;;;;;0.97;0.60;;;;;;;;;;5028713;28;20196;-69
2022/09/01 03:40:10;;;;;;;3.80;0.70;;;;;;;;;;4984218;28;20374;-66
2022/09/01 03:42:38;;;;;;;1.53;0.40;;;;;;;;;;4999469;28;20287;-67
2022/09/01 03:45:08;;;;;;;0.93;0.50;;;;;;;;;;5020704;28;20250;-67
2022/09/01 03:47:39;;;;;;;1.03;0.60;;;;;;;;;;5001354;28;20196;-71
2022/09/01 03:50:10;;;;;;;1.10;0.43;;;;;;;;;;5017352;28;20558;-65
2022/09/01 03:52:55;;;;;;;0.93;0.63;;;;;;;;;;5000496;28;20994;-67
2022/09/01 03:55:25;;;;;;;0.93;0.63;;;;;;;;;;5025482;28;21039;-66
2022/09/01 03:57:54;;;;;;;0.53;0.33;;;;;;;;;;5007607;28;20564;-65
2022/09/01 04:00:22;;;;;;;1.53;0.53;;;;;;;;;;5020619;28;20219;-67
2022/09/01 04:02:50;;;;;;;0.80;0.57;;;;;;;;;;5003067;28;20194;-66
2022/09/01 04:05:27;;;;;;;2.40;0.60;;;;;;;;;;5005030;28;20590;-68
2022/09/01 04:07:56;;;;;;;2.57;0.60;;;;;;;;;;4982458;28;20211;-68
2022/09/01 04:10:48;;;;;;;1.63;0.90;;;;;;;;;;5021956;28;20237;-66
2022/09/01 04:13:25;;;;;;;0.67;0.60;;;;;;;;;;5024849;28;20663;-66
2022/09/01 04:15:53;;;;;;;1.33;0.70;;;;;;;;;;5021328;28;20192;-66
2022/09/01 04:18:22;;;;;;;3.23;0.63;;;;;;;;;;5028929;28;20934;-66
2022/09/01 04:20:52;;;;;;;0.67;0.50;;;;;;;;;;5024695;28;20253;-67
2022/09/01 04:23:28;;;;;;;1.17;0.50;;;;;;;;;;5024311;28;20670;-66
2022/09/01 04:26:07;;;;;;;1.43;0.60;;;;;;;;;;5018721;28;20254;-66
2022/09/01 04:28:57;;;;;;;1.53;0.43;;;;;;;;;;5012185;28;20199;-67
2022/09/01 04:31:25;;;;;;;1.47;0.60;;;;;;;;;;5000700;28;20191;-67
2022/09/01 04:33:53;;;;;;;0.53;0.40;;;;;;;;;;5005111;28;20199;-65
2022/09/01 04:36:22;;;;;;;1.33;0.70;;;;;;;;;;5002659;28;20194;-67
2022/09/01 04:38:53;;;;;;;1.37;0.70;;;;;;;;;;5003016;28;20782;-66
2022/09/01 04:41:21;;;;;;;2.60;0.90;;;;;;;;;;5024989;28;20204;-66
2022/09/01 04:43:50;;;;;;;1.37;0.50;;;;;;;;;;5021949;28;20820;-68
2022/09/01 04:46:19;;;;;;;0.63;0.40;;;;;;;;;;5021402;28;20790;-66
2022/09/01 04:49:09;;;;;;;2.37;0.77;;;;;;;;;;5025623;28;20329;-67
2022/09/01 04:51:43;;;;;;;2.30;0.60;;;;;;;;;;5021667;28;20183;-67
2022/09/01 04:54:13;;;;;;;1.57;0.60;;;;;;;;;;5021464;28;20195;-68
2022/09/01 04:56:42;;;;;;;1.90;0.60;;;;;;;;;;4980849;28;20235;-68
2022/09/01 04:59:12;;;;;;;2.10;0.60;;;;;;;;;;5027434;28;20202;-67
2022/09/01 05:01:59;;;;;;;3.70;0.70;;;;;;;;;;5007356;28;20230;-71
2022/09/01 05:04:27;;;;;;;1.20;0.70;;;;;;;;;;5006484;28;20347;-68
2022/09/01 05:07:13;;;;;;;1.83;0.70;;;;;;;;;;5003665;28;20195;-69
2022/09/01 05:09:40;;;;;;;1.10;0.60;;;;;;;;;;5012651;28;20300;-68
2022/09/01 05:12:40;;;;;;;0.80;0.70;;;;;;;;;;4990460;28;20189;-68
2022/09/01 05:15:08;;;;;;;2.03;0.70;;;;;;;;;;4987638;28;20196;-66
2022/09/01 05:17:37;;;;;;;1.20;0.63;;;;;;;;;;5004233;28;20196;-65
2022/09/01 05:20:04;;;;;;;1.67;0.80;;;;;;;;;;5030360;28;20667;-65
2022/09/01 05:22:32;;;;;;;1.00;0.80;;;;;;;;;;5018829;28;20246;-66
2022/09/01 05:25:11;;;;;;;1.50;1.10;;;;;;;;;;5008611;28;20188;-67
2022/09/01 05:27:48;;;;;;;1.03;0.80;;;;;;;;;;5020381;28;20196;-67
2022/09/01 05:30:17;;;;;;;1.43;0.67;;;;;;;;;;5019815;28;20873;-64
2022/09/01 05:32:47;;;;;;;2.23;0.70;;;;;;;;;;4983568;28;20188;-71
2022/09/01 05:35:16;;;;;;;1.47;0.70;;;;;;;;;;5011165;28;20195;-66
2022/09/01 05:37:43;;;;;;;0.90;0.63;;;;;;;;;;5005450;28;20224;-70
2022/09/01 05:40:14;;;;;;;1.33;0.80;;;;;;;;;;4978256;28;20232;-68
2022/09/01 05:42:44;;;;;;;0.90;0.70;;;;;;;;;;5023122;28;20612;-69
2022/09/01 05:45:13;;;;;;;2.60;0.80;;;;;;;;;;4990702;28;20185;-67
2022/09/01 05:47:40;;;;;;;3.83;1.27;;;;;;;;;;4991498;28;20278;-67
2022/09/01 05:50:09;;;;;;;1.63;0.73;;;;;;;;;;4980696;28;20664;-68
2022/09/01 05:52:43;;;;;;;2.90;1.60;;;;;;;;;;5023708;28;20242;-68
2022/09/01 05:55:10;;;;;;;1.80;1.20;;;;;;;;;;5031493;28;20196;-67
2022/09/01 05:57:40;;;;;;;2.37;1.40;;;;;;;;;;5017504;28;20848;-67
2022/09/01 06:00:12;;;;;;;1.33;0.90;;;;;;;;;;5021323;28;20254;-67
2022/09/01 06:02:41;;;;;;;3.03;1.93;;;;;;;;;;5006832;28;20204;-67
2022/09/01 06:05:14;;;;;;;2.93;0.90;;;;;;;;;;4991112;28;20231;-68
2022/09/01 06:07:44;;;;;;;2.07;1.47;;;;;;;;;;5004630;28;20199;-68
2022/09/01 06:10:13;;;;;;;2.13;0.60;;;;;;;;;;5015071;28;20228;-68
2022/09/01 06:12:41;;;;;;;1.10;0.60;;;;;;;;;;5005169;28;20199;-68
2022/09/01 06:15:29;;;;;;;1.63;0.60;;;;;;;;;;5027795;28;20172;-70
2022/09/01 06:17:57;;;;;;;1.33;0.70;;;;;;;;;;5005493;28;20223;-66
2022/09/01 06:20:25;;;;;;;3.17;1.10;;;;;;;;;;5009008;28;20188;-66
2022/09/01 06:22:52;;;;;;;2.27;0.60;;;;;;;;;;5023002;28;20660;-66
2022/09/01 06:25:19;;;;;;;1.30;0.60;;;;;;;;;;5023983;28;20271;-68
2022/09/01 06:27:47;;;;;;;0.90;0.60;;;;;;;;;;5022235;28;20192;-66
2022/09/01 06:30:19;;;;;;;1.63;0.77;;;;;;;;;;5004167;28;20204;-67
2022/09/01 06:33:08;;;;;;;0.80;0.60;;;;;;;;;;5027671;28;20199;-66
2022/09/01 06:35:54;;;;;;;2.63;0.60;;;;;;;;;;5024948;28;20179;-67
2022/09/01 06:38:24;;;;;;;1.37;0.53;;;;;;;;;;5030695;28;20256;-66
2022/09/01 06:40:58;;;;;;;1.43;0.50;;;;;;;;;;5011807;28;20626;-66
2022/09/01 06:43:26;;;;;;;0.90;0.50;;;;;;;;;;5019790;28;20274;-66
2022/09/01 06:45:53;;;;;;;0.87;0.40;;;;;;;;;;5023979;28;20258;-66
2022/09/01 06:48:22;;;;;;;3.37;0.70;;;;;;;;;;5033712;28;20200;-66
2022/09/01 06:50:52;;;;;;;1.03;0.50;;;;;;;;;;5022846;28;20190;-65
2022/09/01 06:53:40;;;;;;;3.40;0.80;;;;;;;;;;5027167;28;20287;-66
2022/09/01 06:56:12;;;;;;;1.83;0.80;;;;;;;;;;5011710;28;20655;-66
2022/09/01 06:58:40;;;;;;;6.17;0.80;;;;;;;;;;5028647;28;20202;-66
2022/09/01 07:01:14;;;;;;;3.80;0.53;;;;;;;;;;5023930;28;20973;-66
2022/09/01 07:03:42;;;;;;;2.33;0.60;;;;;;;;;;5019537;28;20212;-69
2022/09/01 07:06:16;;;;;;;1.13;0.40;;;;;;;;;;4980278;28;20896;-67
2022/09/01 07:09:17;;;;;;;1.27;0.67;;;;;;;;;;5001450;28;20176;-66
2022/09/01 07:12:05;;;;;;;3.83;0.87;;;;;;;;;;5004138;28;20222;-66
2022/09/01 07:14:52;;;;;;;1.00;0.53;;;;;;;;;;5001023;28;20228;-65
2022/09/01 07:17:41;;;;;;;1.13;0.47;;;;;;;;;;5002822;28;20387;-68
2022/09/01 07:20:10;;;;;;;4.83;0.67;;;;;;;;;;5009621;28;20291;-67
2022/09/01 07:22:55;;;;;;;1.17;0.80;;;;;;;;;;5009368;28;20306;-68
2022/09/01 07:25:33;;;;;;;1.17;0.40;;;;;;;;;;4984939;28;20196;-67
2022/09/01 07:28:31;;;;;;;1.07;0.43;;;;;;;;;;5006933;28;20686;-67
2022/09/01 07:31:07;;;;;;;1.37;0.60;;;;;;;;;;4999352;28;20307;-67
2022/09/01 07:33:57;;;;;;;1.10;0.70;;;;;;;;;;5001268;28;20196;-69
2022/09/01 07:36:45;;;;;;;3.70;0.90;;;;;;;;;;5003810;28;20196;-70
2022/09/01 07:39:35;;;;;;;1.00;0.50;;;;;;;;;;4984903;28;20193;-72
2022/09/01 07:42:30;;;;;;;1.20;0.57;;;;;;;;;;4992989;28;20863;-63
2022/09/01 07:45:47;;;;;;;3.97;0.80;;;;;;;;;;4991197;28;20207;-63
2022/09/01 07:48:26;;;;;;;1.27;0.60;;;;;;;;;;5005261;28;20559;-61
2022/09/01 07:51:17;;;;;;;0.63;0.50;;;;;;;;;;5003771;28;20184;-62
2022/09/01 07:54:05;;;;;;;1.47;0.73;;;;;;;;;;4984682;28;20212;-61
2022/09/01 07:56:32;;;;;;;1.03;0.70;;;;;;;;;;5001972;28;20194;-63
2022/09/01 07:59:06;;;;;;;2.47;0.90;;;;;;;;;;4984886;28;20326;-63
2022/09/01 08:01:38;;;;;;;0.77;0.40;;;;;;;;;;5001654;28;20243;-61
2022/09/01 08:04:09;;;;;;;1.77;0.50;;;;;;;;;;5004908;28;20752;-61
2022/09/01 08:06:39;;;;;;;11.83;1.30;;;;;;;;;;5003062;28;20887;-62
2022/09/01 08:09:09;;;;;;;2.87;0.80;;;;;;;;;;5024090;28;20198;-61
2022/09/01 08:11:56;;;;;;;2.23;0.70;;;;;;;;;;5016154;28;20195;-61
2022/09/01 08:14:30;;;;;;;8.13;0.70;;;;;;;;;;5035312;28;20247;-61
2022/09/01 08:17:01;;;;;;;6.63;1.47;;;;;;;;;;5018660;28;20286;-61
2022/09/01 08:19:45;;;;;;;3.77;0.80;;;;;;;;;;4988106;28;20186;-63
2022/09/01 08:22:24;;;;;;;1.37;0.53;;;;;;;;;;5021485;28;20210;-62
2022/09/01 08:25:00;;;;;;;1.97;0.60;;;;;;;;;;5009721;28;20638;-61
2022/09/01 08:27:28;;;;;;;1.53;0.50;;;;;;;;;;5003454;28;20247;-61
2022/09/01 08:30:12;;;;;;;1.80;0.50;;;;;;;;;;5027241;28;20206;-63
2022/09/01 08:32:43;;;;;;;9.07;1.47;;;;;;;;;;5010763;28;20586;-61
2022/09/01 08:35:11;;;;;;;3.60;0.57;;;;;;;;;;5008504;28;20211;-61
2022/09/01 08:37:38;;;;;;;3.27;0.60;;;;;;;;;;5027227;28;20647;-61
2022/09/01 08:40:06;;;;;;;0.97;0.50;;;;;;;;;;5043407;28;20563;-61
2022/09/01 08:43:00;;;;;;;1.63;0.50;;;;;;;;;;5024262;28;20214;-61
2022/09/01 08:45:37;;;;;;;7.80;0.70;;;;;;;;;;5029186;28;20278;-62
2022/09/01 08:48:38;;;;;;;0.70;0.40;;;;;;;;;;5011195;28;20183;-61
2022/09/01 08:51:36;;;;;;;1.20;0.40;;;;;;;;;;5010365;28;20183;-61
2022/09/01 08:54:25;;;;;;;1.13;0.50;;;;;;;;;;4998580;28;20179;-62
2022/09/01 08:57:06;;;;;;;1.37;0.57;;;;;;;;;;4996203;28;20250;-62
2022/09/01 08:59:52;;;;;;;1.23;0.40;;;;;;;;;;5019596;28;20214;-62
2022/09/01 09:02:36;;;;;;;2.27;0.50;;;;;;;;;;5029237;28;20732;-61
2022/09/01 09:05:23;;;;;;;6.67;1.10;;;;;;;;;;5036071;28;20223;-61
2022/09/01 09:08:09;;;;;;;2.13;0.53;;;;;;;;;;5037175;28;20206;-62
2022/09/01 09:10:48;;;;;;;1.83;0.43;;;;;;;;;;5044998;28;20195;-61
2022/09/01 09:13:30;;;;;;;0.40;0.40;;;;;;;;;;5033645;28;20207;-61
2022/09/01 09:16:00;;;;;;;0.53;0.30;;;;;;;;;;5035709;28;20570;-61
2022/09/01 09:18:56;;;;;;;1.77;0.70;;;;;;;;;;5032071;28;20291;-63
2022/09/01 09:21:26;;;;;;;1.30;0.50;;;;;;;;;;5043274;28;20574;-61
2022/09/01 09:24:12;;;;;;;0.73;0.50;;;;;;;;;;5047516;28;20612;-62
2022/09/01 09:27:01;;;;;;;1.57;0.40;;;;;;;;;;5018221;28;20194;-62
2022/09/01 09:29:27;;;;;;;0.60;0.50;;;;;;;;;;5047375;28;20210;-62
2022/09/01 09:32:12;;;;;;;1.47;0.40;;;;;;;;;;5047553;28;20179;-61
2022/09/01 09:35:00;;;;;;;2.40;0.53;;;;;;;;;;5047136;28;20191;-61
2022/09/01 09:37:28;;;;;;;1.47;0.70;;;;;;;;;;5039507;28;20539;-61
2022/09/01 09:40:13;;;;;;;2.87;0.60;;;;;;;;;;5047196;28;20191;-61
2022/09/01 09:42:42;;;;;;;2.20;0.40;;;;;;;;;;5029457;28;20607;-61
2022/09/01 09:45:15;;;;;;;0.70;0.50;;;;;;;;;;5047761;28;20684;-61
2022/09/01 09:47:43;;;;;;;0.53;0.40;;;;;;;;;;5031568;28;20316;-61
2022/09/01 09:50:12;;;;;;;1.37;0.47;;;;;;;;;;5050789;28;20202;-61
2022/09/01 09:52:39;;;;;;;1.03;0.60;;;;;;;;;;5033289;28;20190;-61
2022/09/01 09:55:17;;;;;;;2.73;0.50;;;;;;;;;;5043225;28;20210;-61
2022/09/01 09:57:46;;;;;;;1.83;0.40;;;;;;;;;;5050738;28;20191;-61
2022/09/01 10:00:22;;;;;;;1.70;0.60;;;;;;;;;;5050689;28;20637;-61
2022/09/01 10:03:10;;;;;;;1.80;0.60;;;;;;;;;;5051110;28;20304;-61
2022/09/01 10:05:50;;;;;;;1.37;0.40;;;;;;;;;;5047843;28;20277;-61
2022/09/01 10:08:46;;;;;;;0.60;0.30;;;;;;;;;;5047243;28;20191;-61
2022/09/01 10:11:26;;;;;;;1.10;0.40;;;;;;;;;;5038746;28;20562;-61
2022/09/01 10:14:01;;;;;;;0.63;0.40;;;;;;;;;;5050676;28;20201;-61
2022/09/01 10:16:29;;;;;;;0.20;0.20;;;;;;;;;;5049456;28;20273;-61
2022/09/01 10:18:59;;;;;;;0.60;0.30;;;;;;;;;;5049139;28;20191;-61
2022/09/01 10:21:26;;;;;;;2.80;0.50;;;;;;;;;;5049137;28;20202;-61
2022/09/01 10:23:53;;;;;;;0.53;0.20;;;;;;;;;;5050770;28;20241;-61
2022/09/01 10:26:23;;;;;;;0.77;0.37;;;;;;;;;;5046632;28;20684;-61
2022/09/01 10:29:06;;;;;;;8.60;1.23;;;;;;;;;;5050421;28;20604;-61
2022/09/01 10:31:38;;;;;;;0.60;0.30;;;;;;;;;;5050205;28;20214;-61
2022/09/01 10:34:05;;;;;;;1.23;0.60;;;;;;;;;;5032195;28;20199;-62
2022/09/01 10:36:32;;;;;;;0.40;0.37;;;;;;;;;;5032584;28;20187;-61
2022/09/01 10:39:17;;;;;;;0.60;0.43;;;;;;;;;;5049608;28;20175;-62
2022/09/01 10:41:55;;;;;;;1.53;0.40;;;;;;;;;;5045595;28;20322;-61
2022/09/01 10:44:33;;;;;;;6.23;1.00;;;;;;;;;;5045851;28;20666;-61
2022/09/01 10:47:09;;;;;;;2.00;0.50;;;;;;;;;;5049931;28;20194;-61
2022/09/01 10:49:53;;;;;;;0.70;0.30;;;;;;;;;;5035012;28;20258;-62
2022/09/01 10:52:49;;;;;;;1.23;0.30;;;;;;;;;;5040755;28;20690;-62
2022/09/01 10:55:36;;;;;;;1.07;0.37;;;;;;;;;;5025908;28;20701;-61
2022/09/01 10:58:08;;;;;;;0.93;0.30;;;;;;;;;;5031814;28;20701;-61
2022/09/01 11:00:52;;;;;;;1.63;0.40;;;;;;;;;;5014843;28;20277;-62
2022/09/01 11:03:39;;;;;;;1.47;0.50;;;;;;;;;;5049322;28;20187;-62
2022/09/01 11:06:33;;;;;;;0.93;0.30;;;;;;;;;;5049165;28;20202;-61
2022/09/01 11:09:02;;;;;;;3.27;0.67;;;;;;;;;;5045301;28;20195;-61
2022/09/01 11:11:30;;;;;;;0.77;0.30;;;;;;;;;;5048335;28;20209;-61
2022/09/01 11:13:57;;;;;;;1.63;0.40;;;;;;;;;;5048266;28;20581;-61
2022/09/01 11:16:29;;;;;;;2.43;0.60;;;;;;;;;;5048144;28;20187;-62
2022/09/01 11:19:31;;;;;;;0.97;0.40;;;;;;;;;;5046263;28;20191;-61
2022/09/01 11:22:09;;;;;;;1.50;0.50;;;;;;;;;;5048804;28;20219;-61
2022/09/01 11:24:38;;;;;;;1.63;0.43;;;;;;;;;;5024842;28;20186;-61
2022/09/01 11:27:06;;;;;;;1.13;0.47;;;;;;;;;;5049506;28;20746;-61
2022/09/01 11:29:51;;;;;;;0.57;0.40;;;;;;;;;;5031614;28;20194;-61
2022/09/01 11:32:36;;;;;;;2.27;0.40;;;;;;;;;;5046108;28;20186;-61
2022/09/01 11:35:04;;;;;;;1.93;0.47;;;;;;;;;;5023155;28;20822;-61
2022/09/01 11:37:49;;;;;;;1.17;0.50;;;;;;;;;;5048966;28;20669;-61
2022/09/01 11:40:20;;;;;;;2.90;0.70;;;;;;;;;;5048582;28;20193;-62
2022/09/01 11:43:08;;;;;;;1.07;0.40;;;;;;;;;;5048721;28;20708;-61
2022/09/01 11:46:07;;;;;;;1.50;0.40;;;;;;;;;;5023724;28;20187;-61
2022/09/01 11:48:52;;;;;;;2.63;0.67;;;;;;;;;;5034202;28;20187;-61
2022/09/01 11:51:20;;;;;;;0.40;0.30;;;;;;;;;;5029397;28;20528;-62
2022/09/01 11:53:47;;;;;;;0.57;0.30;;;;;;;;;;5048303;28;20542;-61
2022/09/01 11:56:14;;;;;;;1.57;0.40;;;;;;;;;;5048578;28;20265;-61
2022/09/01 11:58:41;;;;;;;0.63;0.30;;;;;;;;;;5048891;28;20186;-61
2022/09/01 12:01:14;;;;;;;0.40;0.30;;;;;;;;;;5048464;28;20191;-62
2022/09/01 12:03:41;;;;;;;4.93;0.63;;;;;;;;;;5048224;28;20222;-62
2022/09/01 12:06:09;;;;;;;0.97;0.60;;;;;;;;;;5047254;28;20187;-61
2022/09/01 12:08:39;;;;;;;0.50;0.40;;;;;;;;;;5048643;28;20228;-61
2022/09/01 12:11:07;;;;;;;1.17;0.50;;;;;;;;;;5046660;28;20193;-61
2022/09/01 12:13:34;;;;;;;1.53;0.40;;;;;;;;;;5047320;28;20199;-61
2022/09/01 12:16:02;;;;;;;11.47;1.90;;;;;;;;;;5048466;28;20194;-61
2022/09/01 12:18:46;;;;;;;1.57;0.40;;;;;;;;;;5047120;28;20201;-61
2022/09/01 12:21:20;;;;;;;0.30;0.30;;;;;;;;;;5048236;28;20207;-61
2022/09/01 12:23:48;;;;;;;0.90;0.50;;;;;;;;;;5046391;28;20214;-62
2022/09/01 12:26:22;;;;;;;0.60;0.40;;;;;;;;;;5048095;28;20211;-61
2022/09/01 12:28:49;;;;;;;1.17;0.50;;;;;;;;;;5047245;28;20190;-61
2022/09/01 12:31:17;;;;;;;0.60;0.40;;;;;;;;;;5047979;28;20191;-61
2022/09/01 12:33:44;;;;;;;1.13;0.57;;;;;;;;;;5048263;28;20199;-61
2022/09/01 12:36:21;;;;;;;0.60;0.40;;;;;;;;;;5047925;28;20193;-62
2022/09/01 12:38:48;;;;;;;0.40;0.40;;;;;;;;;;5048815;28;20201;-61
2022/09/01 12:41:25;;;;;;;1.30;0.40;;;;;;;;;;5046610;28;20186;-61
2022/09/01 12:44:29;;;;;;;1.43;0.30;;;;;;;;;;5044491;28;20209;-61
2022/09/01 12:46:57;;;;;;;0.77;0.40;;;;;;;;;;5036506;28;20769;-61
2022/09/01 12:49:25;;;;;;;1.47;0.33;;;;;;;;;;5047748;28;20187;-61
2022/09/01 12:52:12;;;;;;;1.00;0.40;;;;;;;;;;5048019;28;21049;-61
2022/09/01 12:54:57;;;;;;;1.47;0.40;;;;;;;;;;5047854;28;20196;-61
2022/09/01 12:57:27;;;;;;;1.37;0.40;;;;;;;;;;5046694;28;20278;-61
2022/09/01 13:00:09;;;;;;;1.53;0.40;;;;;;;;;;5048258;28;20218;-59
2022/09/01 13:02:37;;;;;;;0.77;0.27;;;;;;;;;;5048206;28;20217;-61
2022/09/01 13:05:25;;;;;;;3.40;0.60;;;;;;;;;;5059562;28;20240;-62
2022/09/01 13:07:59;;;;;;;1.17;0.40;;;;;;;;;;5067549;28;20190;-62
2022/09/01 13:10:27;;;;;;;1.03;0.50;;;;;;;;;;5066693;28;20752;-61
2022/09/01 13:12:54;;;;;;;2.10;0.40;;;;;;;;;;5050190;28;20263;-60
2022/09/01 13:15:21;;;;;;;0.47;0.30;;;;;;;;;;5047865;28;20647;-60
2022/09/01 13:17:48;;;;;;;1.47;0.43;;;;;;;;;;5068280;28;20186;-60
2022/09/01 13:20:15;;;;;;;2.00;0.50;;;;;;;;;;5067631;28;20647;-60
2022/09/01 13:22:43;;;;;;;0.80;0.47;;;;;;;;;;5069348;28;20232;-60
2022/09/01 13:25:15;;;;;;;1.30;0.40;;;;;;;;;;5060214;28;20615;-60
2022/09/01 13:27:42;;;;;;;0.40;0.40;;;;;;;;;;5055455;28;20251;-60
2022/09/01 13:30:10;;;;;;;1.50;0.53;;;;;;;;;;5059827;28;20223;-60
2022/09/01 13:32:55;;;;;;;0.97;0.33;;;;;;;;;;5055196;28;20190;-61
2022/09/01 13:35:42;;;;;;;1.27;0.50;;;;;;;;;;5071322;28;20193;-61
2022/09/01 13:38:09;;;;;;;1.80;0.57;;;;;;;;;;5053942;28;20221;-60
2022/09/01 13:40:36;;;;;;;0.83;0.47;;;;;;;;;;5071358;28;20217;-60
2022/09/01 13:43:04;;;;;;;0.80;0.23;;;;;;;;;;5070959;28;20259;-60
2022/09/01 13:45:31;;;;;;;1.27;0.33;;;;;;;;;;5061615;28;20198;-61
2022/09/01 13:47:59;;;;;;;0.97;0.37;;;;;;;;;;5062797;28;20670;-60
2022/09/01 13:50:43;;;;;;;1.63;0.30;;;;;;;;;;5062943;28;20596;-61
2022/09/01 13:53:29;;;;;;;0.77;0.23;;;;;;;;;;5070929;28;20183;-60
2022/09/01 13:55:56;;;;;;;1.93;0.40;;;;;;;;;;5070951;28;20337;-60
2022/09/01 13:58:29;;;;;;;1.00;0.50;;;;;;;;;;5070778;28;20191;-60
2022/09/01 14:00:58;;;;;;;0.80;0.57;;;;;;;;;;5070886;28;20190;-60
2022/09/01 14:03:25;;;;;;;1.47;0.37;;;;;;;;;;5068406;28;20246;-61
2022/09/01 14:05:52;;;;;;;1.07;0.30;;;;;;;;;;5063055;28;20719;-60
2022/09/01 14:08:20;;;;;;;1.73;0.50;;;;;;;;;;5063426;28;20661;-60
2022/09/01 14:10:49;;;;;;;1.43;0.40;;;;;;;;;;5070546;28;20661;-60
2022/09/01 14:13:17;;;;;;;5.37;0.77;;;;;;;;;;5070407;28;20194;-60
2022/09/01 14:15:45;;;;;;;3.17;0.40;;;;;;;;;;5070484;28;20225;-60
2022/09/01 14:18:35;;;;;;;0.70;0.40;;;;;;;;;;5038794;28;21036;-60
2022/09/01 14:21:02;;;;;;;0.80;0.40;;;;;;;;;;5057051;28;20292;-60
2022/09/01 14:23:29;;;;;;;1.67;0.60;;;;;;;;;;5051876;28;20210;-60
2022/09/01 14:25:57;;;;;;;3.20;0.50;;;;;;;;;;5050045;28;20187;-60
2022/09/01 14:28:24;;;;;;;6.37;0.50;;;;;;;;;;5050278;28;20680;-60
2022/09/01 14:31:08;;;;;;;0.60;0.33;;;;;;;;;;5035297;28;20546;-60
2022/09/01 14:33:36;;;;;;;2.17;0.47;;;;;;;;;;5056079;28;20284;-60
2022/09/01 14:36:21;;;;;;;0.60;0.43;;;;;;;;;;5063487;28;20168;-61
2022/09/01 14:38:50;;;;;;;0.67;0.37;;;;;;;;;;5056814;28;20199;-61
2022/09/01 14:41:22;;;;;;;1.00;0.50;;;;;;;;;;5064307;28;20198;-61
2022/09/01 14:43:52;;;;;;;1.43;0.43;;;;;;;;;;5056755;28;20214;-61
2022/09/01 14:46:19;;;;;;;8.20;0.80;;;;;;;;;;5064105;28;20187;-61
2022/09/01 14:48:47;;;;;;;1.83;0.40;;;;;;;;;;5061077;28;20738;-62
2022/09/01 14:51:24;;;;;;;1.80;0.43;;;;;;;;;;5065998;28;20186;-60
2022/09/01 14:53:51;;;;;;;3.00;0.47;;;;;;;;;;5064512;28;20197;-61
2022/09/01 14:56:20;;;;;;;3.13;0.60;;;;;;;;;;5051880;28;20690;-61
2022/09/01 14:58:48;;;;;;;2.10;0.63;;;;;;;;;;5069745;28;20216;-61
2022/09/01 15:01:15;;;;;;;0.93;0.30;;;;;;;;;;5069693;28;20190;-61
2022/09/01 15:03:59;;;;;;;1.67;0.50;;;;;;;;;;5063410;28;20230;-61
2022/09/01 15:06:44;;;;;;;6.73;0.73;;;;;;;;;;5046374;28;20173;-62
2022/09/01 15:09:11;;;;;;;1.60;0.40;;;;;;;;;;5043006;28;20187;-61
2022/09/01 15:11:44;;;;;;;4.63;0.67;;;;;;;;;;5049780;28;20230;-61
2022/09/01 15:14:11;;;;;;;1.57;0.40;;;;;;;;;;5047905;28;20197;-60
2022/09/01 15:16:40;;;;;;;1.67;0.50;;;;;;;;;;5049267;28;20206;-60
2022/09/01 15:19:08;;;;;;;1.17;0.70;;;;;;;;;;5049288;28;20197;-60
2022/09/01 15:21:35;;;;;;;3.67;0.53;;;;;;;;;;5047809;28;20748;-61
2022/09/01 15:24:03;;;;;;;1.60;0.50;;;;;;;;;;5048980;28;20227;-60
2022/09/01 15:26:29;;;;;;;1.43;0.37;;;;;;;;;;5036123;28;20242;-60
2022/09/01 15:28:56;;;;;;;1.43;0.50;;;;;;;;;;5030563;28;20546;-61